Time;durP1;ratioP1;P1;durP2;ratioP2;P2;SDS_P1;SDS_P2;PMS_P1;PMS_P2;Temp;Humidity;BMP_temperature;BMP_pressure;BME280_temperature;BME280_humidity;BME280_pressure;Samples;Min_cycle;Max_cycle;Signal;HPM_P1;HPM_P2
2021/06/02 00:02:07;;;;;;;0.35;0.05;;;25.50;50.50;;;;;;4987054;28;20031;-86
2021/06/02 00:04:34;;;;;;;1.20;0.20;;;25.50;50.60;;;;;;4976162;28;20027;-86
2021/06/02 00:07:06;;;;;;;0.77;0.13;;;25.40;50.60;;;;;;5011825;28;20038;-87
2021/06/02 00:09:32;;;;;;;0.55;0.20;;;25.40;50.70;;;;;;4994605;28;20043;-85
2021/06/02 00:12:01;;;;;;;5.43;0.60;;;25.40;50.80;;;;;;5011571;28;20023;-86
2021/06/02 00:14:27;;;;;;;1.75;0.50;;;25.40;50.90;;;;;;5011645;28;20479;-86
2021/06/02 00:16:54;;;;;;;0.52;0.10;;;25.40;51.00;;;;;;4974413;28;20038;-86
2021/06/02 00:19:21;;;;;;;1.00;0.40;;;25.30;51.00;;;;;;4975970;28;20421;-86
2021/06/02 00:21:47;;;;;;;0.43;0.20;;;25.30;51.00;;;;;;4989824;28;20034;-85
2021/06/02 00:24:13;;;;;;;0.55;0.10;;;25.30;51.10;;;;;;4990719;28;20037;-85
2021/06/02 00:26:39;;;;;;;0.90;0.30;;;25.30;51.10;;;;;;4975637;28;20495;-86
2021/06/02 00:29:06;;;;;;;0.70;0.13;;;25.30;51.20;;;;;;4958278;28;20067;-86
2021/06/02 00:31:33;;;;;;;1.23;0.20;;;25.20;51.20;;;;;;4984805;28;20030;-86
2021/06/02 00:34:02;;;;;;;0.77;0.15;;;25.20;51.30;;;;;;5011652;28;20037;-86
2021/06/02 00:36:29;;;;;;;0.40;0.10;;;25.20;51.40;;;;;;4978634;28;20492;-86
2021/06/02 00:38:55;;;;;;;0.52;0.20;;;25.10;51.30;;;;;;4978655;28;20035;-84
2021/06/02 00:41:21;;;;;;;0.55;0.15;;;25.10;51.40;;;;;;4978670;28;20045;-86
2021/06/02 00:43:47;;;;;;;0.95;0.30;;;25.10;51.40;;;;;;4974400;28;20030;-85
2021/06/02 00:46:18;;;;;;;0.80;0.10;;;25.10;51.50;;;;;;4977999;28;20435;-86
2021/06/02 00:48:45;;;;;;;7.75;0.40;;;25.10;51.50;;;;;;4974557;28;20392;-86
2021/06/02 00:51:12;;;;;;;1.30;0.22;;;25.10;51.50;;;;;;4989965;28;20456;-86
2021/06/02 00:53:38;;;;;;;4.78;0.20;;;25.00;51.50;;;;;;4990046;28;20047;-85
2021/06/02 00:56:06;;;;;;;0.52;0.20;;;25.00;51.60;;;;;;4974124;28;20019;-86
2021/06/02 00:58:43;;;;;;;2.35;0.52;;;25.00;51.70;;;;;;4974063;28;20042;-86
2021/06/02 01:01:09;;;;;;;1.35;0.45;;;25.00;51.80;;;;;;4954869;28;20404;-86
2021/06/02 01:03:35;;;;;;;3.22;0.40;;;24.90;51.70;;;;;;4973305;28;20023;-85
2021/06/02 01:06:02;;;;;;;0.93;0.20;;;24.90;51.80;;;;;;4989592;28;20030;-85
2021/06/02 01:08:29;;;;;;;1.38;0.25;;;24.90;52.00;;;;;;4989807;28;20038;-86
2021/06/02 01:10:55;;;;;;;0.57;0.30;;;24.80;52.10;;;;;;4973760;28;20392;-85
2021/06/02 01:13:22;;;;;;;0.68;0.20;;;24.70;52.20;;;;;;4973757;28;20340;-86
2021/06/02 01:15:49;;;;;;;0.95;0.30;;;24.70;52.30;;;;;;4980824;28;20038;-86
2021/06/02 01:18:15;;;;;;;0.52;0.17;;;24.70;52.50;;;;;;4981048;28;20383;-85
2021/06/02 01:20:41;;;;;;;1.48;0.35;;;24.60;52.50;;;;;;4977635;28;20054;-85
2021/06/02 01:23:08;;;;;;;1.15;0.30;;;24.60;52.60;;;;;;4976726;28;20026;-86
2021/06/02 01:25:35;;;;;;;1.23;0.00;;;24.60;52.70;;;;;;4974777;28;20038;-85
2021/06/02 01:28:02;;;;;;;2.60;0.45;;;24.50;52.70;;;;;;4979303;28;20030;-86
2021/06/02 01:30:28;;;;;;;0.50;0.20;;;24.50;52.80;;;;;;4977107;28;20058;-86
2021/06/02 01:32:54;;;;;;;3.85;0.40;;;24.40;52.90;;;;;;4974517;28;20031;-85
2021/06/02 01:36:01;;;;;;;1.10;0.20;;;24.40;53.00;;;;;;4974176;28;20491;-85
2021/06/02 01:39:01;;;;;;;2.28;0.22;;;24.40;53.20;;;;;;4974450;28;20022;-86
2021/06/02 01:41:49;;;;;;;0.57;0.20;;;24.30;53.20;;;;;;4974377;28;20473;-85
2021/06/02 01:44:55;;;;;;;0.93;0.20;;;24.30;53.20;;;;;;4973478;28;20034;-84
2021/06/02 01:47:32;;;;;;;0.30;0.10;;;24.30;53.40;;;;;;4962419;28;20055;-86
2021/06/02 01:50:22;;;;;;;0.40;0.10;;;24.20;53.30;;;;;;4971471;28;20377;-85
2021/06/02 01:53:00;;;;;;;1.70;0.15;;;24.20;53.40;;;;;;4990672;28;20476;-85
2021/06/02 01:56:03;;;;;;;0.40;0.08;;;24.10;53.40;;;;;;4974187;28;20049;-85
2021/06/02 01:58:46;;;;;;;0.80;0.20;;;24.10;53.50;;;;;;4957132;28;20034;-86
2021/06/02 02:01:40;;;;;;;0.35;0.15;;;24.10;53.50;;;;;;4981006;28;20062;-86
2021/06/02 02:04:36;;;;;;;0.90;0.40;;;24.10;53.60;;;;;;4968218;28;20037;-86
2021/06/02 02:07:08;;;;;;;0.73;0.25;;;24.10;53.60;;;;;;4970357;28;20035;-85
2021/06/02 02:09:46;;;;;;;0.93;0.17;;;24.00;53.50;;;;;;4970766;28;20054;-85
2021/06/02 02:12:18;;;;;;;0.43;0.13;;;24.00;53.60;;;;;;4953192;28;20039;-87
2021/06/02 02:14:59;;;;;;;5.05;0.22;;;24.00;53.70;;;;;;5002561;28;20496;-85
2021/06/02 02:17:34;;;;;;;;;;;24.00;53.70;;;;;;4969220;28;20035;-86
2021/06/02 02:20:27;;;;;;;0.55;0.20;;;23.90;53.70;;;;;;4984353;28;20303;-85
2021/06/02 02:23:08;;;;;;;0.98;0.43;;;23.90;53.60;;;;;;4956994;28;20034;-87
2021/06/02 02:25:47;;;;;;;0.47;0.10;;;23.90;53.70;;;;;;5001805;28;20046;-86
2021/06/02 02:28:52;;;;;;;0.40;0.08;;;23.80;53.70;;;;;;4967800;28;20035;-85
2021/06/02 02:31:31;;;;;;;0.50;0.10;;;23.80;53.80;;;;;;4981407;28;20587;-86
2021/06/02 02:34:16;;;;;;;0.50;0.10;;;23.80;53.80;;;;;;4985111;28;20511;-86
2021/06/02 02:37:01;;;;;;;3.83;0.25;;;23.70;53.80;;;;;;4971272;28;20023;-85
2021/06/02 02:39:56;;;;;;;0.90;0.30;;;23.70;53.80;;;;;;4972140;28;20039;-86
2021/06/02 02:42:26;;;;;;;1.42;0.10;;;23.70;53.90;;;;;;4988115;28;20035;-84
2021/06/02 02:45:34;;;;;;;3.72;0.20;;;23.70;53.90;;;;;;4988197;28;20023;-86
2021/06/02 02:48:20;;;;;;;5.00;0.25;;;23.70;54.00;;;;;;4970742;28;20055;-85
2021/06/02 02:51:27;;;;;;;0.32;0.00;;;23.70;54.00;;;;;;4955988;28;20053;-86
2021/06/02 02:54:07;;;;;;;1.20;0.50;;;23.70;54.10;;;;;;4971903;28;20030;-85
2021/06/02 02:56:46;;;;;;;5.93;0.50;;;23.70;54.00;;;;;;4971953;28;20384;-86
2021/06/02 02:59:14;;;;;;;0.70;0.15;;;23.70;54.00;;;;;;4973502;28;20026;-86
2021/06/02 03:01:51;;;;;;;2.05;0.40;;;23.70;54.10;;;;;;4979097;28;20034;-86
2021/06/02 03:04:24;;;;;;;0.57;0.30;;;23.70;54.10;;;;;;4975336;28;20031;-85
2021/06/02 03:06:57;;;;;;;5.88;0.30;;;23.70;54.20;;;;;;4978934;28;20023;-86
2021/06/02 03:09:51;;;;;;;0.17;0.00;;;23.70;54.20;;;;;;4994476;28;20035;-84
2021/06/02 03:12:37;;;;;;;4.03;0.43;;;23.70;54.50;;;;;;4979369;28;20027;-85
2021/06/02 03:15:18;;;;;;;0.40;0.20;;;23.60;54.50;;;;;;4978151;28;20487;-87
2021/06/02 03:17:48;;;;;;;5.72;0.38;;;23.50;54.60;;;;;;4973891;28;20065;-88
2021/06/02 03:20:24;;;;;;;4.07;0.20;;;23.50;54.80;;;;;;4982063;28;20027;-88
2021/06/02 03:23:27;;;;;;;0.82;0.20;;;23.40;54.90;;;;;;4964341;28;20049;-88
2021/06/02 03:26:08;;;;;;;2.35;0.30;;;23.30;55.20;;;;;;4966360;28;20514;-88
2021/06/02 03:29:11;;;;;;;2.47;0.50;;;23.30;55.40;;;;;;4979012;28;20061;-88
2021/06/02 03:32:00;;;;;;;1.88;0.28;;;23.20;55.60;;;;;;4993639;28;20045;-87
2021/06/02 03:34:49;;;;;;;7.43;0.43;;;23.10;55.80;;;;;;5019797;28;20387;-88
2021/06/02 03:37:52;;;;;;;0.60;0.20;;;23.00;56.30;;;;;;4995474;28;20033;-88
2021/06/02 03:40:46;;;;;;;0.50;0.30;;;22.90;56.40;;;;;;5018555;28;20034;-87
2021/06/02 03:43:23;;;;;;;0.43;0.10;;;22.90;56.50;;;;;;5012833;28;20380;-88
2021/06/02 03:46:06;;;;;;;1.73;0.63;;;22.80;56.60;;;;;;5012064;28;20046;-87
2021/06/02 03:48:41;;;;;;;0.93;0.43;;;22.90;56.80;;;;;;4977738;28;20043;-87
2021/06/02 03:51:35;;;;;;;0.65;0.22;;;22.90;56.80;;;;;;4993153;28;20027;-89
2021/06/02 03:54:11;;;;;;;1.67;0.50;;;22.80;56.90;;;;;;4994190;28;20030;-87
2021/06/02 03:56:55;;;;;;;0.43;0.10;;;22.80;56.90;;;;;;4994042;28;20085;-88
2021/06/02 03:59:36;;;;;;;1.02;0.35;;;22.90;57.00;;;;;;4978769;28;20027;-87
2021/06/02 04:02:06;;;;;;;0.70;0.17;;;22.90;57.10;;;;;;4990696;28;20035;-86
2021/06/02 04:05:01;;;;;;;0.82;0.38;;;22.90;57.10;;;;;;4979409;28;20031;-86
2021/06/02 04:07:42;;;;;;;3.13;0.50;;;22.90;57.40;;;;;;4992904;28;20030;-87
2021/06/02 04:10:12;;;;;;;0.63;0.10;;;22.90;57.30;;;;;;5011740;28;20053;-88
2021/06/02 04:12:57;;;;;;;1.27;0.45;;;22.90;57.40;;;;;;4979608;28;20388;-88
2021/06/02 04:15:23;;;;;;;1.08;0.40;;;22.80;57.60;;;;;;4978223;28;20085;-88
2021/06/02 04:17:50;;;;;;;0.70;0.22;;;22.90;57.60;;;;;;4974637;28;20384;-88
2021/06/02 04:20:17;;;;;;;0.70;0.10;;;22.80;57.70;;;;;;4974782;28;20380;-87
2021/06/02 04:22:46;;;;;;;1.35;0.47;;;22.80;57.90;;;;;;4960513;28;20046;-87
2021/06/02 04:25:14;;;;;;;0.05;0.03;;;22.80;58.00;;;;;;4987231;28;20518;-87
2021/06/02 04:27:40;;;;;;;0.75;0.25;;;22.80;58.10;;;;;;4974486;28;20022;-88
2021/06/02 04:30:07;;;;;;;3.38;0.55;;;22.70;58.20;;;;;;4975494;28;20046;-87
2021/06/02 04:32:43;;;;;;;0.95;0.20;;;22.70;58.30;;;;;;4988666;28;20480;-88
2021/06/02 04:35:11;;;;;;;0.22;0.10;;;22.70;58.60;;;;;;4977660;28;20038;-88
2021/06/02 04:37:37;;;;;;;1.13;0.40;;;22.60;58.50;;;;;;4976205;28;20023;-88
2021/06/02 04:40:07;;;;;;;0.80;0.20;;;22.60;58.70;;;;;;4995237;28;20029;-88
2021/06/02 04:42:35;;;;;;;0.82;0.50;;;22.60;58.80;;;;;;4994266;28;20034;-88
2021/06/02 04:45:02;;;;;;;1.27;0.50;;;22.60;59.20;;;;;;4994231;28;20035;-87
2021/06/02 04:47:29;;;;;;;1.25;0.38;;;22.60;59.00;;;;;;4970391;28;20039;-87
2021/06/02 04:50:01;;;;;;;0.75;0.10;;;22.60;59.10;;;;;;4937801;29;20424;-88
2021/06/02 04:52:53;;;;;;;0.82;0.30;;;22.60;59.20;;;;;;4956098;28;20038;-87
2021/06/02 04:55:35;;;;;;;1.40;0.63;;;22.50;59.40;;;;;;4956183;28;20464;-86
2021/06/02 04:58:38;;;;;;;3.80;0.40;;;22.50;59.70;;;;;;4956038;28;20035;-86
2021/06/02 05:01:23;;;;;;;2.42;0.45;;;22.40;59.80;;;;;;4963163;28;20038;-86
2021/06/02 05:03:50;;;;;;;1.23;0.52;;;22.40;59.70;;;;;;4989798;28;20046;-85
2021/06/02 05:06:49;;;;;;;1.17;0.40;;;22.50;59.90;;;;;;4974978;28;20023;-87
2021/06/02 05:09:37;;;;;;;1.65;0.45;;;22.40;60.00;;;;;;4973600;28;20078;-86
2021/06/02 05:12:44;;;;;;;9.20;0.70;;;22.40;60.10;;;;;;4974351;28;20031;-85
2021/06/02 05:15:29;;;;;;;1.08;0.38;;;22.40;60.20;;;;;;4955673;28;20467;-85
2021/06/02 05:18:30;;;;;;;1.83;0.40;;;22.30;60.20;;;;;;4956273;28;20031;-85
2021/06/02 05:23:31;;;;;;;0.50;0.13;;;22.30;60.40;;;;;;4957958;28;20042;-85
2021/06/02 05:26:18;;;;;;;1.00;0.40;;;22.30;61.40;;;;;;4973321;28;20043;-85
2021/06/02 05:28:59;;;;;;;2.47;0.50;;;22.30;60.80;;;;;;4957068;28;20042;-87
2021/06/02 05:31:38;;;;;;;0.95;0.40;;;22.30;60.80;;;;;;4971951;28;20035;-85
2021/06/02 05:34:40;;;;;;;2.35;0.55;;;22.30;60.70;;;;;;4957976;28;20043;-86
2021/06/02 05:37:38;;;;;;;1.13;0.47;;;22.30;61.00;;;;;;4972843;28;20043;-85
2021/06/02 05:40:21;;;;;;;6.70;0.20;;;22.30;61.00;;;;;;4972684;28;20035;-85
2021/06/02 05:43:24;;;;;;;0.65;0.25;;;22.30;61.00;;;;;;4968181;28;20035;-85
2021/06/02 05:46:28;;;;;;;0.60;0.28;;;22.30;61.10;;;;;;4964801;28;20051;-85
2021/06/02 05:49:12;;;;;;;2.10;1.02;;;22.30;61.20;;;;;;4953080;29;20043;-86
2021/06/02 05:51:51;;;;;;;1.02;0.45;;;22.30;61.10;;;;;;4949468;29;20389;-85
2021/06/02 05:54:41;;;;;;;0.77;0.20;;;22.30;61.30;;;;;;4954745;28;20032;-85
2021/06/02 05:57:28;;;;;;;0.88;0.43;;;22.30;61.50;;;;;;4954759;28;20027;-85
2021/06/02 06:00:22;;;;;;;0.93;0.30;;;22.30;61.50;;;;;;4953562;28;20043;-85
2021/06/02 06:03:27;;;;;;;1.65;0.40;;;22.30;61.50;;;;;;4982558;28;20034;-86
2021/06/02 06:06:14;;;;;;;1.55;0.40;;;22.30;61.60;;;;;;4959959;28;20035;-85
2021/06/02 06:08:46;;;;;;;2.15;0.40;;;22.40;61.80;;;;;;4977984;28;20618;-85
2021/06/02 06:11:46;;;;;;;2.10;0.35;;;22.30;61.60;;;;;;4977108;28;20034;-85
2021/06/02 06:14:53;;;;;;;0.63;0.40;;;22.40;61.80;;;;;;4964601;28;20034;-86
2021/06/02 06:17:21;;;;;;;1.33;0.50;;;22.40;61.80;;;;;;4936688;29;20047;-85
2021/06/02 06:20:27;;;;;;;2.47;0.47;;;22.50;61.80;;;;;;4952197;29;20405;-85
2021/06/02 06:23:04;;;;;;;1.15;0.40;;;22.50;61.90;;;;;;4882606;29;20040;-85
2021/06/02 06:26:14;;;;;;;0.95;0.43;;;22.50;61.90;;;;;;4895191;29;20033;-85
2021/06/02 06:29:09;;;;;;;0.68;0.25;;;22.50;61.90;;;;;;4869862;29;20053;-86
2021/06/02 06:31:36;;;;;;;1.08;0.50;;;22.50;61.90;;;;;;4840983;29;20037;-85
2021/06/02 06:34:06;;;;;;;0.90;0.40;;;22.60;61.80;;;;;;4842675;29;20407;-85
2021/06/02 06:36:32;;;;;;;2.50;0.52;;;22.60;61.90;;;;;;4874046;29;20041;-85
2021/06/02 06:39:15;;;;;;;0.77;0.47;;;22.70;61.90;;;;;;4852725;29;20045;-86
2021/06/02 06:41:42;;;;;;;0.95;0.38;;;22.70;62.10;;;;;;4843461;29;20052;-86
2021/06/02 06:44:08;;;;;;;1.70;0.60;;;22.70;62.00;;;;;;4858626;29;20048;-86
2021/06/02 06:46:34;;;;;;;1.90;0.75;;;22.70;62.20;;;;;;4827921;29;20048;-86
2021/06/02 06:49:00;;;;;;;2.00;0.32;;;22.70;62.30;;;;;;4842771;29;20496;-86
2021/06/02 06:51:28;;;;;;;1.33;0.40;;;22.70;62.40;;;;;;4874127;29;20124;-85
2021/06/02 06:53:54;;;;;;;2.63;0.88;;;22.70;62.50;;;;;;4852943;29;20072;-86
2021/06/02 06:56:20;;;;;;;2.35;0.45;;;22.70;62.50;;;;;;4840317;29;20444;-86
2021/06/02 06:58:46;;;;;;;1.35;0.52;;;22.70;62.60;;;;;;4857249;29;20043;-86
2021/06/02 07:01:14;;;;;;;2.85;0.45;;;22.70;62.70;;;;;;4907235;28;20124;-86
2021/06/02 07:03:41;;;;;;;2.25;0.90;;;22.70;62.80;;;;;;4943887;28;20046;-86
2021/06/02 07:06:07;;;;;;;1.65;0.63;;;22.70;62.90;;;;;;4971876;28;20023;-86
2021/06/02 07:08:33;;;;;;;1.95;0.68;;;22.70;63.00;;;;;;4987563;28;20038;-86
2021/06/02 07:11:00;;;;;;;4.65;1.05;;;22.60;63.10;;;;;;4971890;28;20514;-86
2021/06/02 07:13:26;;;;;;;1.50;0.63;;;22.60;63.20;;;;;;4973115;28;20044;-84
2021/06/02 07:15:53;;;;;;;0.80;0.40;;;22.60;63.30;;;;;;4971774;28;20038;-86
2021/06/02 07:18:19;;;;;;;6.45;0.30;;;22.60;63.50;;;;;;4952588;28;20039;-86
2021/06/02 07:20:45;;;;;;;1.90;0.95;;;22.50;63.50;;;;;;4964410;28;20027;-85
2021/06/02 07:23:11;;;;;;;4.03;0.98;;;22.50;63.70;;;;;;4955763;28;20042;-86
2021/06/02 07:25:37;;;;;;;1.77;0.70;;;22.50;63.70;;;;;;4956041;28;20389;-86
2021/06/02 07:28:06;;;;;;;3.45;1.13;;;22.50;63.70;;;;;;4972277;28;20027;-85
2021/06/02 07:30:32;;;;;;;2.22;0.60;;;22.50;63.70;;;;;;4951972;28;20046;-86
2021/06/02 07:32:59;;;;;;;1.52;0.40;;;22.50;63.70;;;;;;4966330;28;20023;-85
2021/06/02 07:35:25;;;;;;;2.33;0.63;;;22.60;63.70;;;;;;4971629;28;20052;-86
2021/06/02 07:37:51;;;;;;;2.25;0.70;;;22.60;63.80;;;;;;4971619;28;20050;-86
2021/06/02 07:40:17;;;;;;;2.42;0.73;;;22.60;63.70;;;;;;4971888;28;20057;-85
2021/06/02 07:42:43;;;;;;;1.10;0.63;;;22.60;63.70;;;;;;4973073;28;20035;-85
2021/06/02 07:45:10;;;;;;;2.28;0.43;;;22.60;63.70;;;;;;4973291;28;20369;-86
2021/06/02 07:47:36;;;;;;;1.52;0.70;;;22.60;63.80;;;;;;4970355;28;20045;-83
2021/06/02 07:50:03;;;;;;;0.82;0.20;;;22.60;63.80;;;;;;4960362;28;20047;-85
2021/06/02 07:52:29;;;;;;;0.50;0.25;;;22.60;63.80;;;;;;4976855;28;20030;-86
2021/06/02 07:54:55;;;;;;;0.47;0.17;;;22.60;63.80;;;;;;4996310;28;20048;-86
2021/06/02 07:57:21;;;;;;;3.78;0.50;;;22.60;63.80;;;;;;4979642;28;20038;-85
2021/06/02 07:59:47;;;;;;;1.02;0.30;;;22.60;63.80;;;;;;4979191;28;20023;-86
2021/06/02 08:02:13;;;;;;;1.70;0.50;;;22.60;63.80;;;;;;4975957;28;20042;-86
2021/06/02 08:04:40;;;;;;;0.93;0.38;;;22.70;63.80;;;;;;4975013;28;20034;-85
2021/06/02 08:07:08;;;;;;;2.38;0.63;;;22.70;63.60;;;;;;4976274;28;20030;-86
2021/06/02 08:09:35;;;;;;;1.45;0.60;;;22.70;63.60;;;;;;4976005;28;20035;-85
2021/06/02 08:12:01;;;;;;;0.32;0.20;;;22.70;63.60;;;;;;4974863;28;20042;-85
2021/06/02 08:14:27;;;;;;;1.42;0.32;;;22.70;63.50;;;;;;4975903;28;20041;-86
2021/06/02 08:16:54;;;;;;;1.45;0.63;;;22.70;63.60;;;;;;4986508;28;20034;-85
2021/06/02 08:19:20;;;;;;;2.47;1.00;;;22.70;63.60;;;;;;4962025;28;20066;-85
2021/06/02 08:21:46;;;;;;;3.15;0.73;;;22.60;63.70;;;;;;4980182;28;20038;-86
2021/06/02 08:24:12;;;;;;;0.65;0.38;;;22.60;63.80;;;;;;4977861;28;20047;-85
2021/06/02 08:26:38;;;;;;;4.05;0.95;;;22.60;63.80;;;;;;4979869;28;20407;-86
2021/06/02 08:29:05;;;;;;;4.30;0.95;;;22.50;63.70;;;;;;4976889;28;20031;-85
2021/06/02 08:31:31;;;;;;;3.75;0.30;;;22.50;63.80;;;;;;4975693;28;20050;-84
2021/06/02 08:33:58;;;;;;;1.15;0.40;;;22.50;63.70;;;;;;4991044;28;20484;-85
2021/06/02 08:36:26;;;;;;;0.63;0.30;;;22.50;63.70;;;;;;4974123;28;20511;-85
2021/06/02 08:38:52;;;;;;;1.88;0.40;;;22.60;63.60;;;;;;4990618;28;20026;-84
2021/06/02 08:41:18;;;;;;;1.58;1.02;;;22.70;63.40;;;;;;4990424;28;20023;-85
2021/06/02 08:43:44;;;;;;;6.85;0.77;;;22.80;63.20;;;;;;4974385;28;20030;-84
2021/06/02 08:46:11;;;;;;;2.97;0.82;;;22.90;63.10;;;;;;4954940;28;20485;-85
2021/06/02 08:48:38;;;;;;;1.15;0.35;;;22.90;62.90;;;;;;4973967;28;20059;-85
2021/06/02 08:51:04;;;;;;;1.20;0.30;;;22.90;62.80;;;;;;4989908;28;20047;-83
2021/06/02 08:53:30;;;;;;;7.38;0.77;;;22.90;62.70;;;;;;4990443;28;20031;-86
2021/06/02 08:55:56;;;;;;;1.67;0.43;;;22.90;62.70;;;;;;4990592;28;20043;-83
2021/06/02 08:58:23;;;;;;;2.67;0.57;;;22.90;62.90;;;;;;4974749;28;20026;-86
2021/06/02 09:00:49;;;;;;;3.83;0.52;;;22.80;62.80;;;;;;4981368;28;20034;-86
2021/06/02 09:03:16;;;;;;;1.60;0.50;;;22.80;62.90;;;;;;4981202;28;20058;-85
2021/06/02 09:05:42;;;;;;;1.75;0.55;;;22.70;62.90;;;;;;4978104;28;20030;-79
2021/06/02 09:08:11;;;;;;;2.95;0.50;;;22.70;63.10;;;;;;4977805;28;20477;-85
2021/06/02 09:10:39;;;;;;;2.45;0.63;;;22.70;63.00;;;;;;4974484;28;20065;-85
2021/06/02 09:13:13;;;;;;;1.35;0.65;;;22.70;63.00;;;;;;5010886;28;20483;-85
2021/06/02 09:15:42;;;;;;;1.02;0.43;;;22.60;62.80;;;;;;4973158;28;20405;-85
2021/06/02 09:18:13;;;;;;;0.85;0.43;;;22.70;62.80;;;;;;4972999;28;20046;-86
2021/06/02 09:20:46;;;;;;;1.25;0.55;;;22.70;62.80;;;;;;4973622;28;20387;-86
2021/06/02 09:23:35;;;;;;;1.83;0.60;;;22.70;62.70;;;;;;4974704;28;20373;-85
2021/06/02 09:26:10;;;;;;;3.47;0.70;;;22.70;62.80;;;;;;4961631;28;20027;-85
2021/06/02 09:28:45;;;;;;;3.00;0.65;;;22.60;62.70;;;;;;4974535;28;20043;-86
2021/06/02 09:31:30;;;;;;;3.45;1.02;;;22.60;62.80;;;;;;4983769;28;20053;-85
2021/06/02 09:34:17;;;;;;;1.83;0.60;;;22.50;62.80;;;;;;4994348;28;20476;-85
2021/06/02 09:36:44;;;;;;;2.13;0.63;;;22.50;62.90;;;;;;5004453;28;20047;-85
2021/06/02 09:39:12;;;;;;;3.10;0.80;;;22.50;63.00;;;;;;5009772;28;20027;-85
2021/06/02 09:41:47;;;;;;;3.72;0.60;;;22.40;62.90;;;;;;5009461;28;20035;-85
2021/06/02 09:44:23;;;;;;;3.97;0.90;;;22.40;63.00;;;;;;4960098;28;20035;-85
2021/06/02 09:47:08;;;;;;;2.30;0.73;;;22.40;63.00;;;;;;4957524;28;20488;-85
2021/06/02 09:49:54;;;;;;;6.38;0.90;;;22.40;63.10;;;;;;4988995;28;20042;-85
2021/06/02 09:52:42;;;;;;;2.22;0.65;;;22.30;63.10;;;;;;5001420;28;20404;-85
2021/06/02 09:55:21;;;;;;;2.92;0.95;;;22.30;63.10;;;;;;5005893;28;20023;-85
2021/06/02 09:58:06;;;;;;;1.48;0.70;;;22.30;63.20;;;;;;4974302;28;20030;-85
2021/06/02 10:00:40;;;;;;;3.30;0.55;;;22.20;63.20;;;;;;4977677;28;20391;-85
2021/06/02 10:03:17;;;;;;;3.20;1.13;;;22.20;64.00;;;;;;4982508;28;20030;-86
2021/06/02 10:05:47;;;;;;;1.02;0.45;;;22.30;63.20;;;;;;4977054;28;20034;-85
2021/06/02 10:08:35;;;;;;;1.33;0.52;;;22.30;63.10;;;;;;4976324;28;20361;-86
2021/06/02 10:11:18;;;;;;;2.03;0.50;;;22.40;62.90;;;;;;4960378;28;20046;-85
2021/06/02 10:13:44;;;;;;;2.00;0.45;;;22.50;62.60;;;;;;4972642;28;20037;-83
2021/06/02 10:16:10;;;;;;;1.30;0.77;;;22.60;62.40;;;;;;4992560;28;20050;-85
2021/06/02 10:18:38;;;;;;;4.80;1.48;;;22.60;62.30;;;;;;4988649;28;20039;-85
2021/06/02 10:21:06;;;;;;;4.72;1.23;;;22.60;62.40;;;;;;4972269;28;20027;-85
2021/06/02 10:23:40;;;;;;;3.50;0.95;;;22.60;62.50;;;;;;4972469;28;20031;-85
2021/06/02 10:26:07;;;;;;;1.90;0.65;;;22.60;62.50;;;;;;4972610;28;20499;-85
2021/06/02 10:28:33;;;;;;;2.15;0.82;;;22.70;62.50;;;;;;4973486;28;20038;-85
2021/06/02 10:31:00;;;;;;;8.27;0.77;;;22.60;62.40;;;;;;4972037;28;20047;-85
2021/06/02 10:33:28;;;;;;;3.42;0.47;;;22.70;62.40;;;;;;4953141;28;20039;-85
2021/06/02 10:35:54;;;;;;;1.10;0.50;;;22.70;62.30;;;;;;4967195;28;20460;-85
2021/06/02 10:38:21;;;;;;;1.02;0.50;;;22.80;62.20;;;;;;4972295;28;20034;-85
2021/06/02 10:40:47;;;;;;;2.25;0.63;;;22.90;62.00;;;;;;4972149;28;20034;-84
2021/06/02 10:43:16;;;;;;;1.05;0.60;;;22.90;61.90;;;;;;4957067;28;20479;-85
2021/06/02 10:45:58;;;;;;;3.83;1.02;;;23.00;61.80;;;;;;4976741;28;20046;-85
2021/06/02 10:48:48;;;;;;;9.95;0.63;;;23.10;61.90;;;;;;4962520;28;20039;-86
2021/06/02 10:51:39;;;;;;;4.13;0.60;;;23.10;61.70;;;;;;4974616;28;20042;-85
2021/06/02 10:54:08;;;;;;;4.05;0.93;;;23.20;61.40;;;;;;4976390;28;20031;-85
2021/06/02 10:56:35;;;;;;;1.50;0.32;;;23.40;61.20;;;;;;4977565;28;20383;-86
2021/06/02 10:59:01;;;;;;;1.45;0.50;;;23.60;60.80;;;;;;4973958;28;20214;-86
2021/06/02 11:01:30;;;;;;;6.03;0.57;;;23.70;60.50;;;;;;4974672;28;20030;-86
2021/06/02 11:04:12;;;;;;;1.45;0.60;;;23.90;60.30;;;;;;4951567;28;20047;-86
2021/06/02 11:06:42;;;;;;;1.50;0.43;;;24.00;60.10;;;;;;4987612;28;20527;-86
2021/06/02 11:09:09;;;;;;;1.25;0.57;;;24.00;59.90;;;;;;4972930;28;20023;-86
2021/06/02 11:11:45;;;;;;;1.98;0.55;;;24.00;59.90;;;;;;4955854;28;20046;-86
2021/06/02 11:14:14;;;;;;;2.00;0.82;;;24.10;59.80;;;;;;4988207;28;20396;-86
2021/06/02 11:16:48;;;;;;;1.48;0.70;;;24.30;59.60;;;;;;4972518;28;20026;-85
2021/06/02 11:19:15;;;;;;;1.83;0.40;;;24.50;59.40;;;;;;4983697;28;20026;-86
2021/06/02 11:21:53;;;;;;;1.38;0.40;;;24.60;59.20;;;;;;4974200;28;20027;-85
2021/06/02 11:24:34;;;;;;;0.95;0.45;;;24.80;59.00;;;;;;4976886;28;20035;-85
2021/06/02 11:27:10;;;;;;;0.93;0.25;;;25.00;58.60;;;;;;4975627;28;20030;-84
2021/06/02 11:29:48;;;;;;;3.40;0.88;;;25.30;58.20;;;;;;4976368;28;20404;-85
2021/06/02 11:32:19;;;;;;;1.98;0.52;;;25.70;57.90;;;;;;4989855;28;20476;-86
2021/06/02 11:35:05;;;;;;;2.40;0.57;;;26.00;57.50;;;;;;4976438;28;20039;-86
2021/06/02 11:37:33;;;;;;;1.92;0.57;;;26.20;57.20;;;;;;5018661;28;20411;-87
2021/06/02 11:40:07;;;;;;;1.25;0.30;;;26.40;56.90;;;;;;5012494;28;20027;-86
2021/06/02 11:42:46;;;;;;;1.40;0.55;;;26.60;56.70;;;;;;4995330;28;20032;-86
2021/06/02 11:45:17;;;;;;;3.23;0.57;;;26.70;56.50;;;;;;4975714;28;20038;-86
2021/06/02 11:47:44;;;;;;;1.70;0.60;;;26.70;56.50;;;;;;4983681;28;20481;-86
2021/06/02 11:50:14;;;;;;;1.95;0.22;;;26.70;56.50;;;;;;4975333;28;20035;-86
2021/06/02 11:52:40;;;;;;;1.27;0.60;;;26.60;56.60;;;;;;4975121;28;20039;-86
2021/06/02 11:55:10;;;;;;;3.78;0.70;;;26.60;56.60;;;;;;4976746;28;20031;-86
2021/06/02 11:57:40;;;;;;;4.83;0.60;;;26.60;56.60;;;;;;4974836;28;20035;-85
2021/06/02 12:00:07;;;;;;;0.75;0.45;;;26.60;56.50;;;;;;4975089;28;20031;-86
2021/06/02 12:02:33;;;;;;;1.00;0.30;;;26.60;56.50;;;;;;4989761;28;20022;-86
2021/06/02 12:05:25;;;;;;;3.08;0.90;;;26.70;56.40;;;;;;4976567;28;20042;-85
2021/06/02 12:08:01;;;;;;;1.77;0.57;;;26.80;56.20;;;;;;4960717;28;20030;-85
2021/06/02 12:10:32;;;;;;;1.05;0.40;;;26.90;56.10;;;;;;4977230;28;20065;-86
2021/06/02 12:12:59;;;;;;;;;;;27.10;55.90;;;;;;5010490;28;20027;-85
2021/06/02 12:15:25;;;;;;;3.63;0.50;;;27.20;55.70;;;;;;5011199;28;19914;-86
2021/06/02 12:17:51;;;;;;;0.80;0.32;;;27.20;55.40;;;;;;4974610;28;20039;-86
2021/06/02 12:20:22;;;;;;;6.35;0.47;;;27.30;55.30;;;;;;4974967;28;20039;-84
2021/06/02 12:22:49;;;;;;;2.70;0.50;;;27.40;55.10;;;;;;4975985;28;20372;-86
2021/06/02 12:25:17;;;;;;;1.48;0.40;;;27.50;55.00;;;;;;4975272;28;20507;-87
2021/06/02 12:27:52;;;;;;;1.23;0.50;;;27.60;54.90;;;;;;4956385;28;20407;-87
2021/06/02 12:30:26;;;;;;;1.33;0.57;;;27.80;54.60;;;;;;4973977;28;20038;-85
2021/06/02 12:32:57;;;;;;;2.38;0.85;;;27.90;54.50;;;;;;4973674;28;20022;-86
2021/06/02 12:35:33;;;;;;;1.63;0.43;;;27.90;54.30;;;;;;4974553;28;20027;-86
2021/06/02 12:38:12;;;;;;;0.85;0.30;;;27.90;54.40;;;;;;4974466;28;20023;-86
2021/06/02 12:40:46;;;;;;;1.13;0.50;;;27.90;54.30;;;;;;4975503;28;20023;-86
2021/06/02 12:43:18;;;;;;;1.25;0.38;;;28.00;54.00;;;;;;4975173;28;20038;-86
2021/06/02 12:45:47;;;;;;;0.20;0.15;;;28.10;53.90;;;;;;4990061;28;20046;-86
2021/06/02 12:48:18;;;;;;;0.87;0.30;;;28.00;53.90;;;;;;4990357;28;20027;-85
2021/06/02 12:50:48;;;;;;;4.38;0.30;;;28.10;53.70;;;;;;4974000;28;20302;-86
2021/06/02 12:53:16;;;;;;;0.77;0.20;;;28.10;53.60;;;;;;4974233;28;20026;-85
2021/06/02 12:55:47;;;;;;;0.85;0.20;;;28.20;53.50;;;;;;4974885;28;20042;-87
2021/06/02 12:58:14;;;;;;;1.52;0.25;;;28.20;53.30;;;;;;4986600;28;20022;-86
2021/06/02 13:00:45;;;;;;;1.23;0.28;;;28.10;53.20;;;;;;4978580;28;20484;-86
2021/06/02 13:03:14;;;;;;;0.80;0.20;;;28.00;53.30;;;;;;4981613;28;20376;-86
2021/06/02 13:05:44;;;;;;;2.25;0.45;;;28.00;53.30;;;;;;4974902;28;20037;-86
2021/06/02 13:08:10;;;;;;;0.70;0.23;;;27.90;53.40;;;;;;4962682;28;20041;-86
2021/06/02 13:10:37;;;;;;;0.30;0.20;;;27.80;53.40;;;;;;4988561;28;20043;-86
2021/06/02 13:13:06;;;;;;;2.45;0.65;;;27.80;53.30;;;;;;5010870;28;20054;-86
2021/06/02 13:15:34;;;;;;;1.85;0.40;;;27.90;53.20;;;;;;5009998;28;20039;-86
2021/06/02 13:18:00;;;;;;;1.77;0.63;;;27.90;53.00;;;;;;4989433;28;20019;-86
2021/06/02 13:20:36;;;;;;;1.35;0.40;;;27.90;52.90;;;;;;4973546;28;20035;-85
2021/06/02 13:23:09;;;;;;;2.10;0.65;;;28.00;52.80;;;;;;4974731;28;20472;-86
2021/06/02 13:25:36;;;;;;;3.75;0.70;;;27.90;52.60;;;;;;4973255;28;20365;-85
2021/06/02 13:28:06;;;;;;;1.67;0.65;;;28.00;52.60;;;;;;4973606;28;20046;-85
2021/06/02 13:30:45;;;;;;;0.95;0.28;;;28.00;52.60;;;;;;4988934;28;20066;-86